createdAt,value
2022-10-14T00:02:09.797Z,7.80
2022-10-14T00:04:42.540Z,7.80
2022-10-14T00:07:15.035Z,7.80
2022-10-14T00:09:47.787Z,7.80
2022-10-14T00:12:20.279Z,7.80
2022-10-14T00:14:52.987Z,7.70
2022-10-14T00:17:25.552Z,7.70
2022-10-14T00:19:59.420Z,7.60
2022-10-14T00:22:32.171Z,7.60
2022-10-14T00:25:05.331Z,7.60
2022-10-14T00:27:38.076Z,7.50
2022-10-14T00:30:11.219Z,7.60
2022-10-14T00:32:43.768Z,7.50
2022-10-14T00:35:16.643Z,7.60
2022-10-14T00:37:49.140Z,7.60
2022-10-14T00:40:21.847Z,7.60
2022-10-14T00:42:54.350Z,7.60
2022-10-14T00:45:27.152Z,7.50
2022-10-14T00:47:59.828Z,7.50
2022-10-14T00:50:33.600Z,7.60
2022-10-14T00:53:06.239Z,7.60
2022-10-14T00:55:40.786Z,7.50
2022-10-14T00:58:13.295Z,7.50
2022-10-14T01:00:46.013Z,7.40
2022-10-14T01:03:21.135Z,7.40
2022-10-14T01:06:04.716Z,7.40
2022-10-14T01:08:45.952Z,7.30
2022-10-14T01:11:41.097Z,7.30
2022-10-14T01:14:26.779Z,7.40
2022-10-14T01:17:14.807Z,7.40
2022-10-14T01:20:02.803Z,7.40
2022-10-14T01:22:37.387Z,7.40
2022-10-14T01:25:25.132Z,7.50
2022-10-14T01:28:23.643Z,7.50
2022-10-14T01:31:10.884Z,7.40
2022-10-14T01:33:46.449Z,7.40
2022-10-14T01:36:30.408Z,7.30
2022-10-14T01:39:12.976Z,7.30
2022-10-14T01:41:56.583Z,7.20
2022-10-14T01:44:31.040Z,7.10
2022-10-14T01:47:05.704Z,7.00
2022-10-14T01:49:44.036Z,7.00
2022-10-14T01:52:27.860Z,7.00
2022-10-14T01:55:04.086Z,7.00
2022-10-14T01:57:39.684Z,6.90
2022-10-14T02:00:12.932Z,6.90
2022-10-14T02:02:45.525Z,7.00
2022-10-14T02:06:04.920Z,7.00
2022-10-14T02:08:50.351Z,7.00
2022-10-14T02:11:24.092Z,7.10
2022-10-14T02:14:09.193Z,7.00
2022-10-14T02:17:00.153Z,7.00
2022-10-14T02:19:44.159Z,6.90
2022-10-14T02:22:29.877Z,6.80
2022-10-14T02:25:30.456Z,6.70
2022-10-14T02:28:07.331Z,6.70
2022-10-14T02:30:44.640Z,6.70
2022-10-14T02:33:20.852Z,6.70
2022-10-14T02:35:54.195Z,6.70
2022-10-14T02:38:28.011Z,6.60
2022-10-14T02:41:04.708Z,6.60
2022-10-14T02:43:37.903Z,6.60
2022-10-14T02:46:10.679Z,6.60
2022-10-14T02:48:43.650Z,6.60
2022-10-14T02:51:17.359Z,6.60
2022-10-14T02:53:50.064Z,6.60
2022-10-14T02:56:22.576Z,6.60
2022-10-14T02:58:55.241Z,6.60
2022-10-14T03:01:27.875Z,6.60
2022-10-14T03:04:00.643Z,6.60
2022-10-14T03:06:33.178Z,6.60
2022-10-14T03:09:06.160Z,6.60
2022-10-14T03:11:38.640Z,6.60
2022-10-14T03:14:11.371Z,6.60
2022-10-14T03:16:43.906Z,6.70
2022-10-14T03:19:16.941Z,6.80
2022-10-14T03:21:49.446Z,6.80
2022-10-14T03:24:22.580Z,6.80
2022-10-14T03:26:55.123Z,6.80
2022-10-14T03:29:27.815Z,6.80
2022-10-14T03:32:00.291Z,6.80
2022-10-14T03:34:32.963Z,6.70
2022-10-14T03:37:05.549Z,6.70
2022-10-14T03:39:38.237Z,6.70
2022-10-14T03:42:10.938Z,6.80
2022-10-14T03:44:44.855Z,6.80
2022-10-14T03:47:17.427Z,6.90
2022-10-14T03:49:50.084Z,6.90
2022-10-14T03:52:23.096Z,6.90
2022-10-14T03:54:56.019Z,6.90
2022-10-14T03:57:28.500Z,6.80
2022-10-14T04:00:01.459Z,6.80
2022-10-14T04:02:34.032Z,6.80
2022-10-14T04:05:08.491Z,6.90
2022-10-14T04:07:41.008Z,6.80
2022-10-14T04:10:13.748Z,6.80
2022-10-14T04:12:46.240Z,6.80
2022-10-14T04:15:18.944Z,6.80
2022-10-14T04:17:51.577Z,6.80
2022-10-14T04:20:24.296Z,6.70
2022-10-14T04:23:00.097Z,6.70
2022-10-14T04:25:33.103Z,6.70
2022-10-14T04:28:06.007Z,6.60
2022-10-14T04:30:38.687Z,6.60
2022-10-14T04:33:11.175Z,6.50
2022-10-14T04:35:43.848Z,6.50
2022-10-14T04:38:16.400Z,6.40
2022-10-14T04:40:49.525Z,6.40
2022-10-14T04:43:22.247Z,6.40
2022-10-14T04:45:54.953Z,6.50
2022-10-14T04:48:27.456Z,6.50
2022-10-14T04:51:00.197Z,6.50
2022-10-14T04:53:32.924Z,6.50
2022-10-14T04:56:06.099Z,6.50
2022-10-14T04:58:38.575Z,6.50
2022-10-14T05:01:11.355Z,6.50
2022-10-14T05:03:44.061Z,6.40
2022-10-14T05:06:17.348Z,6.40
2022-10-14T05:08:49.864Z,6.30
2022-10-14T05:11:22.583Z,6.30
2022-10-14T05:13:55.068Z,6.30
2022-10-14T05:16:27.778Z,6.30
2022-10-14T05:19:00.732Z,6.40
2022-10-14T05:21:33.478Z,6.40
2022-10-14T05:24:06.303Z,6.40
2022-10-14T05:26:39.032Z,6.40
2022-10-14T05:29:12.367Z,6.50
2022-10-14T05:31:45.151Z,6.50
2022-10-14T05:34:17.703Z,6.60
2022-10-14T05:36:50.522Z,6.70
2022-10-14T05:39:23.114Z,6.80
2022-10-14T05:41:55.915Z,6.90
2022-10-14T05:44:28.414Z,7.00
2022-10-14T05:47:01.429Z,7.10
2022-10-14T05:49:34.058Z,7.20
2022-10-14T05:52:07.054Z,7.30
2022-10-14T05:54:39.594Z,7.40
2022-10-14T05:57:12.310Z,7.50
2022-10-14T05:59:44.782Z,7.50
2022-10-14T06:02:17.430Z,7.60
2022-10-14T06:04:49.991Z,7.60
2022-10-14T06:07:22.759Z,7.70
2022-10-14T06:09:55.295Z,7.80
2022-10-14T06:12:27.978Z,7.80
2022-10-14T06:15:00.522Z,8.00
2022-10-14T06:17:34.651Z,8.00
2022-10-14T06:20:07.767Z,8.10
2022-10-14T06:22:40.536Z,8.20
2022-10-14T06:25:13.158Z,8.30
2022-10-14T06:27:46.570Z,8.40
2022-10-14T06:30:19.077Z,8.40
2022-10-14T06:32:53.845Z,8.40
2022-10-14T06:35:26.377Z,8.50
2022-10-14T06:37:59.448Z,8.50
2022-10-14T06:40:31.999Z,8.50
2022-10-14T06:43:04.909Z,8.60
2022-10-14T06:45:37.446Z,8.70
2022-10-14T06:48:18.251Z,8.70
2022-10-14T06:50:53.480Z,8.80
2022-10-14T06:53:27.137Z,8.90
2022-10-14T06:56:06.748Z,9.00
2022-10-14T06:58:40.069Z,9.10
2022-10-14T07:01:12.629Z,9.20
2022-10-14T07:03:45.410Z,9.30
2022-10-14T07:06:18.062Z,9.50
2022-10-14T07:08:50.776Z,9.50
2022-10-14T07:11:23.334Z,9.70
2022-10-14T07:13:57.138Z,9.80
2022-10-14T07:16:30.508Z,9.90
2022-10-14T07:19:03.719Z,10.00
2022-10-14T07:21:36.238Z,10.20
2022-10-14T07:24:09.758Z,10.30
2022-10-14T07:26:42.504Z,10.50
2022-10-14T07:29:15.175Z,10.60
2022-10-14T07:31:47.786Z,10.80
2022-10-14T07:34:20.625Z,10.90
2022-10-14T07:36:53.522Z,11.00
2022-10-14T07:39:27.595Z,11.20
2022-10-14T07:42:00.261Z,11.30
2022-10-14T07:44:33.010Z,11.30
2022-10-14T07:47:06.165Z,11.30
2022-10-14T07:49:39.259Z,11.30
2022-10-14T07:52:11.781Z,11.40
2022-10-14T07:54:44.845Z,11.50
2022-10-14T07:57:17.449Z,11.70
2022-10-14T07:59:52.437Z,11.80
2022-10-14T08:02:25.050Z,11.90
2022-10-14T08:05:18.889Z,12.00
2022-10-14T08:07:51.512Z,12.10
2022-10-14T08:10:24.250Z,12.10
2022-10-14T08:12:57.961Z,12.10
2022-10-14T08:15:35.217Z,12.20
2022-10-14T08:18:09.794Z,12.30
2022-10-14T08:20:42.550Z,12.40
2022-10-14T08:23:18.973Z,12.60
2022-10-14T08:25:52.774Z,12.80
2022-10-14T08:28:25.646Z,12.90
2022-10-14T08:30:58.434Z,13.10
2022-10-14T08:33:30.966Z,13.20
2022-10-14T08:36:04.286Z,13.30
2022-10-14T08:38:36.984Z,13.30
2022-10-14T08:41:12.712Z,13.40
2022-10-14T08:44:16.227Z,13.40
2022-10-14T08:46:52.475Z,13.50
2022-10-14T08:50:05.350Z,13.40
2022-10-14T08:52:39.961Z,13.30
2022-10-14T08:55:39.553Z,13.30
2022-10-14T08:58:28.813Z,13.20
2022-10-14T09:01:34.989Z,13.30
2022-10-14T09:04:14.585Z,13.40
2022-10-14T09:06:50.607Z,13.40
2022-10-14T09:09:40.706Z,13.50
2022-10-14T09:12:16.781Z,13.60
2022-10-14T09:15:05.352Z,13.70
2022-10-14T09:18:01.686Z,13.90
2022-10-14T09:20:34.778Z,14.00
2022-10-14T09:23:19.398Z,14.20
2022-10-14T09:25:59.202Z,14.30
2022-10-14T09:28:39.131Z,14.40
2022-10-14T09:31:13.085Z,14.50
2022-10-14T09:33:45.896Z,14.70
2022-10-14T09:36:20.873Z,14.80
2022-10-14T09:38:56.299Z,14.90
2022-10-14T09:41:31.088Z,15.00
2022-10-14T09:44:19.939Z,15.10
2022-10-14T09:46:58.396Z,15.20
2022-10-14T09:49:42.489Z,15.30
2022-10-14T09:52:24.321Z,15.40
2022-10-14T09:55:01.689Z,15.40
2022-10-14T09:57:34.520Z,15.50
2022-10-14T10:00:07.712Z,15.50
2022-10-14T10:02:43.679Z,15.60
2022-10-14T10:05:30.125Z,15.60
2022-10-14T10:08:18.404Z,15.70
2022-10-14T10:11:03.717Z,15.70
2022-10-14T10:13:46.613Z,15.80
2022-10-14T10:16:25.066Z,15.80
2022-10-14T10:19:17.149Z,15.70
2022-10-14T10:21:49.651Z,15.70
2022-10-14T10:24:26.159Z,15.70
2022-10-14T10:27:11.798Z,15.80
2022-10-14T10:29:44.537Z,15.80
2022-10-14T10:32:30.304Z,15.80
2022-10-14T10:35:07.012Z,15.90
2022-10-14T10:37:46.496Z,15.90
2022-10-14T10:40:25.091Z,15.90
2022-10-14T10:43:11.887Z,15.90
2022-10-14T10:45:47.840Z,16.00
2022-10-14T10:48:46.678Z,16.00
2022-10-14T10:51:54.466Z,16.00
2022-10-14T10:54:53.483Z,16.10
2022-10-14T10:57:46.080Z,16.20
2022-10-14T11:00:22.757Z,16.20
2022-10-14T11:03:23.074Z,16.30
2022-10-14T11:05:59.020Z,16.40
2022-10-14T11:08:56.316Z,16.40
2022-10-14T11:12:06.477Z,16.50
2022-10-14T11:14:57.402Z,16.60
2022-10-14T11:18:00.525Z,16.70
2022-10-14T11:21:22.668Z,16.70
2022-10-14T11:24:10.319Z,16.80
2022-10-14T11:27:10.607Z,16.70
2022-10-14T11:29:46.152Z,16.80
2022-10-14T11:32:37.818Z,16.90
2022-10-14T11:38:28.709Z,17.10
2022-10-14T11:41:12.941Z,17.10
2022-10-14T11:44:12.247Z,17.10
2022-10-14T11:46:51.497Z,17.20
2022-10-14T11:49:36.845Z,17.20
2022-10-14T11:52:21.388Z,17.20
2022-10-14T11:55:13.754Z,17.30
2022-10-14T11:58:02.948Z,17.50
2022-10-14T12:00:57.249Z,17.60
2022-10-14T12:03:46.557Z,17.70
2022-10-14T12:06:37.986Z,17.90
2022-10-14T12:09:17.509Z,18.00
2022-10-14T12:12:02.432Z,18.20
2022-10-14T12:14:46.335Z,18.30
2022-10-14T12:17:51.743Z,18.40
2022-10-14T12:20:38.982Z,18.50
2022-10-14T12:23:24.422Z,18.40
2022-10-14T12:26:07.048Z,18.40
2022-10-14T12:28:40.839Z,18.40
2022-10-14T12:31:28.806Z,18.30
2022-10-14T12:34:13.745Z,18.30
2022-10-14T12:36:50.839Z,18.30
2022-10-14T12:39:31.928Z,18.20
2022-10-14T12:42:13.154Z,18.20
2022-10-14T12:44:48.726Z,18.20
2022-10-14T12:47:35.248Z,18.20
2022-10-14T12:50:14.278Z,18.20
2022-10-14T12:52:57.769Z,18.40
2022-10-14T12:55:33.698Z,18.40
2022-10-14T12:58:06.770Z,18.50
2022-10-14T13:00:41.098Z,18.50
2022-10-14T13:03:27.409Z,18.50
2022-10-14T13:06:28.356Z,18.50
2022-10-14T13:09:13.338Z,18.60
2022-10-14T13:12:08.805Z,18.60
2022-10-14T13:15:05.825Z,18.60
2022-10-14T13:17:47.951Z,18.60
2022-10-14T13:20:35.816Z,18.60
2022-10-14T13:23:27.590Z,18.60
2022-10-14T13:26:27.168Z,18.60
2022-10-14T13:29:22.569Z,18.60
2022-10-14T13:32:09.173Z,18.50
2022-10-14T13:34:51.933Z,18.40
2022-10-14T13:37:45.893Z,18.40
2022-10-14T13:40:38.986Z,18.40
2022-10-14T13:43:36.246Z,18.50
2022-10-14T13:46:25.120Z,18.60
2022-10-14T13:49:04.918Z,18.60
2022-10-14T13:51:49.718Z,18.70
2022-10-14T13:54:26.543Z,18.60
2022-10-14T14:03:02.429Z,18.50
2022-10-14T14:05:36.604Z,18.50
2022-10-14T14:08:41.962Z,18.50
2022-10-14T14:11:20.866Z,18.60
2022-10-14T14:14:02.974Z,18.60
2022-10-14T14:16:41.533Z,18.70
2022-10-14T14:19:26.141Z,18.60
2022-10-14T14:22:20.110Z,18.50
2022-10-14T14:25:31.808Z,18.30
2022-10-14T14:28:05.833Z,18.20
2022-10-14T14:30:39.670Z,17.90
2022-10-14T14:33:17.004Z,17.70
2022-10-14T14:35:56.940Z,17.60
2022-10-14T14:38:37.573Z,17.50
2022-10-14T14:41:25.323Z,17.30
2022-10-14T14:44:26.434Z,17.20
2022-10-14T14:47:04.369Z,17.10
2022-10-14T14:49:38.632Z,17.10
2022-10-14T14:52:13.788Z,17.00
2022-10-14T14:54:48.214Z,16.90
2022-10-14T14:57:22.409Z,16.90
2022-10-14T15:00:01.970Z,16.80
2022-10-14T15:02:35.688Z,16.70
2022-10-14T15:05:10.735Z,16.70
2022-10-14T15:07:44.077Z,16.60
2022-10-14T15:10:23.855Z,16.60
2022-10-14T15:12:58.514Z,16.50
2022-10-14T15:15:33.576Z,16.40
2022-10-14T15:18:19.727Z,16.20
2022-10-14T15:20:52.414Z,16.00
2022-10-14T15:23:49.985Z,15.90
2022-10-14T15:26:33.641Z,15.80
2022-10-14T15:29:12.832Z,15.70
2022-10-14T15:32:02.671Z,15.50
2022-10-14T15:34:35.808Z,15.50
2022-10-14T15:37:13.299Z,15.30
2022-10-14T15:39:45.968Z,15.30
2022-10-14T15:42:19.126Z,15.20
2022-10-14T15:44:51.880Z,15.20
2022-10-14T15:47:24.867Z,15.10
2022-10-14T15:49:57.941Z,15.10
2022-10-14T15:52:32.528Z,15.10
2022-10-14T15:55:21.000Z,15.10
2022-10-14T15:57:53.991Z,15.10
2022-10-14T16:00:26.732Z,15.20
2022-10-14T16:02:59.435Z,15.20
2022-10-14T16:05:32.279Z,15.20
2022-10-14T16:08:11.335Z,15.20
2022-10-14T16:10:45.415Z,15.10
2022-10-14T16:13:17.915Z,15.10
2022-10-14T16:16:00.485Z,15.00
2022-10-14T16:18:33.408Z,15.00
2022-10-14T16:21:06.230Z,15.00
2022-10-14T16:23:38.797Z,15.00
2022-10-14T16:26:13.371Z,14.90
2022-10-14T16:28:46.788Z,14.90
2022-10-14T16:31:19.571Z,15.00
2022-10-14T16:33:54.862Z,14.90
2022-10-14T16:36:27.858Z,14.90
2022-10-14T16:39:01.850Z,14.80
2022-10-14T16:41:34.723Z,14.80
2022-10-14T16:44:07.786Z,14.80
2022-10-14T16:46:58.911Z,14.80
2022-10-14T16:49:31.331Z,14.80
2022-10-14T16:52:04.326Z,14.80
2022-10-14T16:54:37.042Z,14.80
2022-10-14T16:57:10.213Z,14.70
2022-10-14T16:59:45.519Z,14.70
2022-10-14T17:02:18.326Z,14.60
2022-10-14T17:04:51.538Z,14.60
2022-10-14T17:07:24.287Z,14.60
2022-10-14T17:09:57.878Z,14.60
2022-10-14T17:12:30.655Z,14.60
2022-10-14T17:15:03.799Z,14.50
2022-10-14T17:17:36.537Z,14.50
2022-10-14T17:20:09.827Z,14.50
2022-10-14T17:22:43.035Z,14.50
2022-10-14T17:25:17.871Z,14.50
2022-10-14T17:27:50.773Z,14.40
2022-10-14T17:30:23.405Z,14.40
2022-10-14T17:32:56.158Z,14.40
2022-10-14T17:35:28.682Z,14.40
2022-10-14T17:38:01.457Z,14.40
2022-10-14T17:40:34.583Z,14.40
2022-10-14T17:43:07.411Z,14.40
2022-10-14T17:45:40.043Z,14.40
2022-10-14T17:48:13.288Z,14.30
2022-10-14T17:50:48.818Z,14.30
2022-10-14T17:53:22.084Z,14.20
2022-10-14T17:55:57.747Z,14.20
2022-10-14T17:58:31.327Z,14.30
2022-10-14T18:01:16.146Z,14.30
2022-10-14T18:03:49.799Z,14.30
2022-10-14T18:06:27.674Z,14.30
2022-10-14T18:09:03.323Z,14.30
2022-10-14T18:12:07.710Z,14.30
2022-10-14T18:14:35.758Z,14.20
2022-10-14T18:17:11.015Z,14.20
2022-10-14T18:19:46.173Z,14.20
2022-10-14T18:22:22.270Z,14.20
2022-10-14T18:24:55.230Z,14.20
2022-10-14T18:27:27.777Z,14.20
2022-10-14T18:30:00.630Z,14.10
2022-10-14T18:32:33.596Z,14.10
2022-10-14T18:35:06.773Z,14.10
2022-10-14T18:37:39.498Z,14.00
2022-10-14T18:40:14.649Z,13.90
2022-10-14T18:42:47.622Z,13.90
2022-10-14T18:45:20.567Z,13.70
2022-10-14T18:47:53.264Z,13.70
2022-10-14T18:50:26.169Z,13.60
2022-10-14T18:52:58.936Z,13.50
2022-10-14T18:55:31.898Z,13.40
2022-10-14T18:58:04.629Z,13.30
2022-10-14T19:00:39.426Z,13.20
2022-10-14T19:03:12.215Z,13.10
2022-10-14T19:05:47.213Z,13.10
2022-10-14T19:08:19.905Z,13.00
2022-10-14T19:11:01.546Z,12.90
2022-10-14T19:13:34.603Z,12.80
2022-10-14T19:16:12.704Z,12.70
2022-10-14T19:18:45.926Z,12.70
2022-10-14T19:21:20.462Z,12.70
2022-10-14T19:23:53.390Z,12.70
2022-10-14T19:26:28.847Z,12.70
2022-10-14T19:29:04.347Z,12.60
2022-10-14T19:31:40.375Z,12.70
2022-10-14T19:34:15.440Z,12.70
2022-10-14T19:36:48.609Z,12.60
2022-10-14T19:39:21.274Z,12.60
2022-10-14T19:41:54.177Z,12.50
2022-10-14T19:44:26.961Z,12.30
2022-10-14T19:46:59.910Z,12.40
2022-10-14T19:49:32.564Z,12.40
2022-10-14T19:52:05.600Z,12.30
2022-10-14T19:54:38.293Z,12.30
2022-10-14T19:57:11.265Z,12.30
2022-10-14T19:59:44.060Z,12.30
2022-10-14T20:02:17.076Z,12.30
2022-10-14T20:04:49.772Z,12.20
2022-10-14T20:07:22.717Z,12.10
2022-10-14T20:09:58.104Z,12.10
2022-10-14T20:12:33.521Z,12.10
2022-10-14T20:15:07.624Z,12.00
2022-10-14T20:17:40.696Z,12.00
2022-10-14T20:20:13.380Z,12.00
2022-10-14T20:22:46.421Z,11.90
2022-10-14T20:25:19.199Z,11.90
2022-10-14T20:27:52.004Z,11.90
2022-10-14T20:30:24.612Z,11.80
2022-10-14T20:32:57.624Z,11.80
2022-10-14T20:35:30.234Z,11.70
2022-10-14T20:38:03.577Z,11.60
2022-10-14T20:40:36.981Z,11.60
2022-10-14T20:43:09.953Z,11.60
2022-10-14T20:45:42.676Z,11.50
2022-10-14T20:48:15.741Z,11.50
2022-10-14T20:50:48.613Z,11.50
2022-10-14T20:53:21.539Z,11.50
2022-10-14T20:55:54.058Z,11.50
2022-10-14T20:58:26.992Z,11.50
2022-10-14T21:01:17.534Z,11.40
2022-10-14T21:03:50.711Z,11.40
2022-10-14T21:06:24.616Z,11.40
2022-10-14T21:08:58.700Z,11.40
2022-10-14T21:11:31.390Z,11.40
2022-10-14T21:14:04.449Z,11.30
2022-10-14T21:16:37.645Z,11.30
2022-10-14T21:19:11.040Z,11.30
2022-10-14T21:21:49.966Z,11.20
2022-10-14T21:24:27.489Z,11.10
2022-10-14T21:27:00.350Z,11.00
2022-10-14T21:29:33.245Z,11.10
2022-10-14T21:32:05.968Z,11.00
2022-10-14T21:34:38.884Z,11.10
2022-10-14T21:37:12.204Z,11.10
2022-10-14T21:39:45.601Z,11.10
2022-10-14T21:42:18.309Z,11.10
2022-10-14T21:44:57.708Z,11.10
2022-10-14T21:47:31.300Z,11.00
2022-10-14T21:50:04.402Z,11.10
2022-10-14T21:52:37.109Z,11.10
2022-10-14T21:55:13.337Z,11.10
2022-10-14T21:57:46.141Z,11.20
2022-10-14T22:00:19.115Z,11.10
2022-10-14T22:02:55.262Z,11.10
2022-10-14T22:05:28.655Z,11.00
2022-10-14T22:08:02.278Z,11.00
2022-10-14T22:10:45.165Z,11.10
2022-10-14T22:13:17.805Z,11.20
2022-10-14T22:15:50.585Z,11.20
2022-10-14T22:18:23.664Z,11.20
2022-10-14T22:21:06.159Z,11.20
2022-10-14T22:23:40.423Z,11.20
2022-10-14T22:26:18.580Z,11.20
2022-10-14T22:29:23.529Z,11.20
2022-10-14T22:31:56.349Z,11.20
2022-10-14T22:34:28.944Z,11.30
2022-10-14T22:37:01.976Z,11.30
2022-10-14T22:39:34.657Z,11.30
2022-10-14T22:42:07.522Z,11.30
2022-10-14T22:44:40.118Z,11.30
2022-10-14T22:47:12.922Z,11.30
2022-10-14T22:49:45.469Z,11.30
2022-10-14T22:52:18.346Z,11.30
2022-10-14T22:54:51.013Z,11.30
2022-10-14T22:57:23.796Z,11.40
2022-10-14T22:59:56.402Z,11.40
2022-10-14T23:02:29.258Z,11.50
2022-10-14T23:05:01.800Z,11.50
2022-10-14T23:07:34.816Z,11.50
2022-10-14T23:10:07.651Z,11.60
2022-10-14T23:12:40.491Z,11.60
2022-10-14T23:15:13.104Z,11.60
2022-10-14T23:17:45.861Z,11.60
2022-10-14T23:20:18.637Z,11.60
2022-10-14T23:22:51.498Z,11.60
2022-10-14T23:25:24.457Z,11.60
2022-10-14T23:27:57.590Z,11.60
2022-10-14T23:30:30.264Z,11.60
2022-10-14T23:33:03.617Z,11.60
2022-10-14T23:35:37.275Z,11.70
2022-10-14T23:38:13.574Z,11.70
2022-10-14T23:40:46.175Z,11.70
2022-10-14T23:43:19.403Z,11.70
2022-10-14T23:45:54.346Z,11.70
2022-10-14T23:48:30.095Z,11.70
2022-10-14T23:51:02.670Z,11.70
2022-10-14T23:53:36.167Z,11.70
2022-10-14T23:56:08.795Z,11.70
2022-10-14T23:58:41.636Z,11.70
